createdAt,value
2019-03-18T00:00:50.728Z,82.34
2019-03-18T00:01:50.716Z,81.37
2019-03-18T00:02:50.705Z,80.54
2019-03-18T00:03:50.738Z,80.23
2019-03-18T00:04:50.685Z,80.58
2019-03-18T00:05:50.678Z,80.85
2019-03-18T00:06:50.663Z,80.23
2019-03-18T00:07:50.691Z,80.02
2019-03-18T00:08:50.681Z,80.23
2019-03-18T00:09:50.631Z,80.16
2019-03-18T00:10:50.621Z,80.65
2019-03-18T00:11:50.613Z,81.48
2019-03-18T00:12:52.137Z,80.02
2019-03-18T00:13:50.590Z,80.92
2019-03-18T00:15:00.702Z,80.19
2019-03-18T00:15:51.570Z,79.88
2019-03-18T00:16:50.556Z,79.78
2019-03-18T00:17:50.542Z,79.47
2019-03-18T00:18:50.537Z,79.92
2019-03-18T00:19:50.560Z,79.30
2019-03-18T00:20:50.512Z,79.92
2019-03-18T00:21:50.500Z,80.09
2019-03-18T00:22:50.489Z,80.75
2019-03-18T00:23:50.522Z,81.48
2019-03-18T00:24:50.470Z,80.51
2019-03-18T00:25:50.456Z,80.71
2019-03-18T00:26:50.445Z,80.23
2019-03-18T00:27:50.437Z,81.27
2019-03-18T00:28:50.424Z,81.54
2019-03-18T00:29:50.459Z,80.44
2019-03-18T00:30:50.410Z,79.82
2019-03-18T00:31:50.393Z,80.33
2019-03-18T00:32:50.381Z,80.33
2019-03-18T00:33:50.416Z,80.23
2019-03-18T00:34:50.364Z,80.33
2019-03-18T00:35:50.351Z,80.92
2019-03-18T00:36:50.340Z,79.88
2019-03-18T00:37:50.371Z,79.99
2019-03-18T00:38:50.358Z,79.78
2019-03-18T00:39:50.358Z,79.88
2019-03-18T00:40:50.294Z,79.82
2019-03-18T00:41:50.284Z,80.33
2019-03-18T00:42:50.276Z,80.33
2019-03-18T00:43:50.302Z,80.23
2019-03-18T00:44:50.292Z,80.75
2019-03-18T00:45:50.304Z,80.02
2019-03-18T00:46:50.230Z,80.02
2019-03-18T00:47:50.222Z,80.33
2019-03-18T00:48:50.209Z,79.88
2019-03-18T00:49:50.243Z,79.06
2019-03-18T00:50:50.189Z,78.54
2019-03-18T00:51:50.178Z,79.37
2019-03-18T00:52:50.167Z,79.92
2019-03-18T00:53:50.160Z,79.78
2019-03-18T00:54:50.149Z,79.10
2019-03-18T00:55:51.792Z,79.78
2019-03-18T00:56:50.125Z,78.27
2019-03-18T00:57:50.112Z,79.30
2019-03-18T00:58:50.163Z,79.41
2019-03-18T00:59:50.094Z,79.41
2019-03-18T01:00:50.081Z,80.06
2019-03-18T01:01:50.069Z,79.85
2019-03-18T01:02:50.160Z,80.58
2019-03-18T01:03:50.051Z,81.51
2019-03-18T01:04:50.083Z,80.58
2019-03-18T01:05:50.070Z,81.51
2019-03-18T01:06:50.018Z,79.96
2019-03-18T01:07:50.009Z,80.16
2019-03-18T01:08:49.998Z,79.55
2019-03-18T01:09:50.033Z,79.75
2019-03-18T01:10:50.016Z,80.73
2019-03-18T01:11:49.965Z,80.10
2019-03-18T01:12:49.964Z,80.41
2019-03-18T01:13:49.990Z,81.24
2019-03-18T01:14:49.931Z,80.93
2019-03-18T01:15:49.919Z,81.04
2019-03-18T01:16:49.923Z,81.24
2019-03-18T01:17:49.899Z,81.35
2019-03-18T01:18:49.889Z,81.14
2019-03-18T01:19:49.919Z,81.14
2019-03-18T01:20:49.869Z,81.76
2019-03-18T01:21:49.905Z,82.07
2019-03-18T01:22:49.862Z,81.76
2019-03-18T01:23:49.835Z,81.87
2019-03-18T01:24:49.832Z,81.80
2019-03-18T01:25:49.852Z,81.90
2019-03-18T01:26:49.804Z,82.11
2019-03-18T01:27:49.801Z,81.49
2019-03-18T01:28:49.867Z,81.18
2019-03-18T01:29:49.773Z,82.01
2019-03-18T01:30:49.763Z,81.52
2019-03-18T01:31:49.786Z,81.59
2019-03-18T01:32:49.736Z,81.90
2019-03-18T01:33:49.725Z,81.90
2019-03-18T01:34:49.755Z,82.67
2019-03-18T01:35:49.709Z,82.56
2019-03-18T01:36:49.734Z,82.77
2019-03-18T01:37:49.689Z,83.18
2019-03-18T01:38:49.672Z,83.36
2019-03-18T01:39:49.665Z,83.15
2019-03-18T01:40:49.649Z,82.56
2019-03-18T01:41:49.683Z,82.87
2019-03-18T01:42:49.653Z,82.21
2019-03-18T01:43:49.620Z,83.18
2019-03-18T01:44:49.606Z,83.08
2019-03-18T01:45:49.647Z,83.39
2019-03-18T01:46:49.586Z,83.08
2019-03-18T01:47:49.577Z,82.98
2019-03-18T01:48:49.571Z,83.12
2019-03-18T01:49:49.554Z,83.01
2019-03-18T01:50:49.547Z,83.01
2019-03-18T01:51:49.571Z,82.60
2019-03-18T01:52:49.522Z,83.43
2019-03-18T01:53:49.512Z,83.05
2019-03-18T01:54:49.538Z,83.78
2019-03-18T01:55:49.490Z,83.78
2019-03-18T01:56:49.539Z,83.78
2019-03-18T01:57:49.476Z,85.10
2019-03-18T01:58:49.456Z,84.37
2019-03-18T01:59:49.489Z,83.64
2019-03-18T02:00:49.437Z,83.74
2019-03-18T02:01:49.426Z,83.74
2019-03-18T02:02:51.814Z,84.16
2019-03-18T02:03:49.403Z,83.81
2019-03-18T02:04:49.437Z,84.27
2019-03-18T02:05:49.416Z,83.43
2019-03-18T02:06:49.373Z,83.33
2019-03-18T02:07:49.358Z,83.22
2019-03-18T02:08:49.350Z,83.33
2019-03-18T02:09:49.342Z,84.16
2019-03-18T02:10:49.367Z,83.22
2019-03-18T02:11:49.318Z,83.22
2019-03-18T02:12:49.306Z,83.16
2019-03-18T02:13:49.296Z,83.26
2019-03-18T02:14:49.328Z,84.09
2019-03-18T02:15:53.517Z,84.09
2019-03-18T02:16:49.298Z,84.03
2019-03-18T02:17:49.293Z,84.13
2019-03-18T02:18:49.240Z,83.72
2019-03-18T02:19:49.231Z,84.44
2019-03-18T02:20:49.220Z,84.75
2019-03-18T02:21:49.248Z,85.38
2019-03-18T02:22:49.238Z,85.38
2019-03-18T02:23:49.190Z,84.75
2019-03-18T02:24:49.190Z,84.80
2019-03-18T02:25:49.204Z,84.69
2019-03-18T02:26:49.176Z,85.52
2019-03-18T02:27:49.144Z,84.80
2019-03-18T02:28:49.134Z,85.00
2019-03-18T02:29:49.165Z,85.11
2019-03-18T02:30:49.113Z,85.42
2019-03-18T02:31:49.115Z,85.77
2019-03-18T02:32:49.134Z,85.63
2019-03-18T02:33:49.120Z,85.67
2019-03-18T02:34:49.071Z,86.35
2019-03-18T02:35:49.062Z,86.40
2019-03-18T02:36:49.090Z,86.19
2019-03-18T02:37:49.044Z,85.77
2019-03-18T02:38:49.031Z,85.56
2019-03-18T02:39:49.017Z,86.08
2019-03-18T02:40:49.003Z,85.98
2019-03-18T02:41:49.067Z,86.19
2019-03-18T02:42:49.029Z,86.91
2019-03-18T02:43:48.973Z,86.19
2019-03-18T02:44:48.960Z,86.85
2019-03-18T02:45:48.997Z,88.06
2019-03-18T02:46:48.939Z,87.75
2019-03-18T02:47:48.933Z,86.40
2019-03-18T02:48:48.919Z,86.22
2019-03-18T02:49:48.909Z,86.02
2019-03-18T02:50:48.942Z,86.29
2019-03-18T02:51:52.665Z,86.96
2019-03-18T02:52:48.876Z,86.54
2019-03-18T02:53:48.870Z,87.20
2019-03-18T02:54:48.855Z,87.62
2019-03-18T02:55:48.886Z,87.93
2019-03-18T02:56:48.831Z,88.14
2019-03-18T02:57:48.881Z,88.14
2019-03-18T02:58:48.817Z,88.35
2019-03-18T02:59:48.799Z,87.83
2019-03-18T03:00:48.793Z,88.35
2019-03-18T03:01:48.775Z,88.24
2019-03-18T03:02:48.810Z,87.62
2019-03-18T03:03:48.763Z,88.76
2019-03-18T03:04:48.742Z,88.45
2019-03-18T03:05:48.737Z,88.56
2019-03-18T03:06:48.752Z,88.66
2019-03-18T03:07:48.761Z,88.56
2019-03-18T03:08:48.699Z,88.56
2019-03-18T03:09:48.688Z,88.14
2019-03-18T03:10:48.682Z,88.24
2019-03-18T03:11:48.675Z,88.66
2019-03-18T03:12:48.729Z,88.60
2019-03-18T03:13:48.646Z,88.49
2019-03-18T03:14:48.692Z,88.49
2019-03-18T03:15:48.638Z,88.76
2019-03-18T03:16:48.613Z,88.08
2019-03-18T03:17:48.633Z,88.39
2019-03-18T03:18:48.592Z,88.39
2019-03-18T03:19:48.581Z,89.01
2019-03-18T03:20:48.623Z,88.70
2019-03-18T03:21:48.565Z,89.12
2019-03-18T03:22:48.549Z,89.64
2019-03-18T03:23:48.539Z,88.70
2019-03-18T03:24:48.686Z,88.70
2019-03-18T03:25:48.524Z,89.22
2019-03-18T03:26:48.507Z,89.64
2019-03-18T03:27:48.497Z,89.43
2019-03-18T03:28:48.487Z,89.22
2019-03-18T03:29:48.522Z,88.66
2019-03-18T03:30:48.586Z,88.04
2019-03-18T03:31:48.510Z,87.52
2019-03-18T03:32:48.442Z,87.52
2019-03-18T03:33:48.436Z,87.73
2019-03-18T03:34:48.430Z,87.52
2019-03-18T03:35:48.408Z,86.99
2019-03-18T03:36:48.450Z,86.89
2019-03-18T03:37:48.391Z,86.99
2019-03-18T03:38:48.379Z,86.47
2019-03-18T03:39:48.367Z,85.96
2019-03-18T03:40:48.356Z,86.06
2019-03-18T03:41:48.419Z,86.89
2019-03-18T03:42:48.335Z,86.99
2019-03-18T03:43:48.324Z,86.83
2019-03-18T03:44:48.311Z,87.10
2019-03-18T03:45:48.342Z,87.52
2019-03-18T03:46:48.337Z,88.14
2019-03-18T03:47:48.288Z,88.35
2019-03-18T03:48:48.272Z,88.35
2019-03-18T03:49:48.308Z,88.35
2019-03-18T03:50:48.245Z,88.14
2019-03-18T03:51:48.240Z,87.83
2019-03-18T03:52:48.276Z,87.89
2019-03-18T03:53:48.219Z,87.65
2019-03-18T03:54:48.205Z,86.71
2019-03-18T03:55:48.230Z,86.91
2019-03-18T03:56:48.184Z,87.02
2019-03-18T03:57:48.218Z,86.91
2019-03-18T03:58:48.159Z,86.50
2019-03-18T03:59:48.150Z,87.25
2019-03-18T04:00:48.139Z,85.06
2019-03-18T04:01:48.130Z,85.28
2019-03-18T04:02:48.128Z,84.55
2019-03-18T04:03:48.158Z,85.21
2019-03-18T04:04:48.105Z,86.38
2019-03-18T04:05:48.087Z,84.86
2019-03-18T04:06:48.077Z,84.23
2019-03-18T04:07:48.113Z,84.13
2019-03-18T04:08:48.055Z,84.34
2019-03-18T04:09:48.040Z,85.69
2019-03-18T04:10:48.038Z,84.75
2019-03-18T04:11:48.028Z,84.23
2019-03-18T04:12:48.009Z,84.23
2019-03-18T04:13:48.049Z,84.17
2019-03-18T04:14:48.034Z,83.86
2019-03-18T04:15:47.980Z,84.94
2019-03-18T04:17:00.645Z,85.56
2019-03-18T04:17:48.951Z,85.25
2019-03-18T04:18:47.944Z,86.04
2019-03-18T04:19:47.995Z,85.46
2019-03-18T04:20:47.922Z,85.25
2019-03-18T04:21:50.648Z,85.35
2019-03-18T04:22:47.951Z,86.02
2019-03-18T04:23:47.887Z,85.98
2019-03-18T04:24:47.880Z,85.98
2019-03-18T04:25:47.908Z,85.67
2019-03-18T04:26:47.855Z,85.88
2019-03-18T04:27:47.853Z,85.81
2019-03-18T04:28:47.833Z,85.67
2019-03-18T04:29:47.869Z,86.19
2019-03-18T04:30:47.811Z,85.67
2019-03-18T04:31:47.801Z,85.46
2019-03-18T04:32:47.791Z,85.98
2019-03-18T04:33:47.781Z,86.67
2019-03-18T04:34:47.770Z,85.63
2019-03-18T04:35:47.810Z,84.59
2019-03-18T04:36:47.772Z,84.17
2019-03-18T04:37:47.825Z,86.25
2019-03-18T04:38:47.847Z,85.42
2019-03-18T04:39:47.717Z,84.86
2019-03-18T04:40:47.704Z,84.03
2019-03-18T04:41:47.692Z,84.09
2019-03-18T04:42:47.682Z,84.72
2019-03-18T04:43:47.727Z,84.20
2019-03-18T04:44:47.660Z,84.30
2019-03-18T04:45:47.651Z,84.23
2019-03-18T04:46:47.640Z,83.47
2019-03-18T04:47:47.683Z,83.68
2019-03-18T04:48:47.621Z,83.95
2019-03-18T04:49:47.605Z,83.53
2019-03-18T04:50:47.635Z,83.01
2019-03-18T04:51:47.588Z,84.05
2019-03-18T04:52:47.621Z,83.39
2019-03-18T04:53:47.563Z,82.04
2019-03-18T04:54:47.550Z,81.90
2019-03-18T04:55:47.540Z,81.84
2019-03-18T04:56:47.529Z,81.73
2019-03-18T04:57:47.518Z,82.56
2019-03-18T04:58:47.551Z,83.36
2019-03-18T04:59:47.496Z,83.15
2019-03-18T05:00:47.487Z,81.49
2019-03-18T05:01:47.478Z,81.66
2019-03-18T05:02:47.462Z,82.07
2019-03-18T05:03:47.454Z,81.70
2019-03-18T05:04:47.481Z,82.90
2019-03-18T05:05:47.431Z,81.76
2019-03-18T05:06:47.421Z,81.51
2019-03-18T05:07:47.408Z,81.48
2019-03-18T05:08:47.444Z,79.82
2019-03-18T05:09:47.388Z,79.88
2019-03-18T05:10:47.377Z,79.82
2019-03-18T05:11:47.414Z,80.51
2019-03-18T05:12:47.356Z,79.88
2019-03-18T05:13:47.370Z,79.88
2019-03-18T05:14:47.333Z,80.22
2019-03-18T05:15:47.323Z,78.88
2019-03-18T05:16:47.313Z,77.29
2019-03-18T05:17:47.354Z,78.12
2019-03-18T05:18:47.290Z,76.61
2019-03-18T05:19:47.279Z,77.91
2019-03-18T05:20:47.268Z,77.95
2019-03-18T05:21:47.257Z,76.71
2019-03-18T05:22:47.308Z,76.71
2019-03-18T05:23:47.237Z,77.74
2019-03-18T05:24:47.225Z,78.67
2019-03-18T05:25:47.269Z,77.43
2019-03-18T05:26:47.205Z,78.57
2019-03-18T05:27:47.194Z,77.50
2019-03-18T05:28:47.187Z,76.46
2019-03-18T05:29:47.170Z,76.46
2019-03-18T05:30:47.162Z,76.67
2019-03-18T05:31:47.193Z,78.53
2019-03-18T05:32:47.152Z,77.60
2019-03-18T05:33:47.128Z,76.98
2019-03-18T05:34:47.125Z,77.19
2019-03-18T05:35:47.156Z,77.19
2019-03-18T05:36:47.095Z,77.15
2019-03-18T05:37:47.085Z,77.36
2019-03-18T05:38:47.076Z,77.15
2019-03-18T05:39:47.064Z,77.05
2019-03-18T05:40:47.092Z,76.29
2019-03-18T05:41:47.097Z,75.81
2019-03-18T05:42:47.030Z,76.12
2019-03-18T05:43:47.019Z,76.74
2019-03-18T05:44:47.009Z,77.87
2019-03-18T05:45:47.001Z,77.74
2019-03-18T05:46:46.995Z,75.88
2019-03-18T05:47:47.024Z,76.64
2019-03-18T05:48:46.969Z,76.53
2019-03-18T05:49:46.965Z,77.47
2019-03-18T05:50:46.949Z,76.95
2019-03-18T05:51:46.937Z,77.67
2019-03-18T05:52:46.926Z,76.95
2019-03-18T05:53:46.972Z,76.53
2019-03-18T05:54:46.903Z,76.95
2019-03-18T05:55:46.892Z,76.43
2019-03-18T05:56:46.927Z,78.56
2019-03-18T05:57:46.873Z,76.50
2019-03-18T05:58:46.986Z,76.91
2019-03-18T05:59:46.848Z,76.50
2019-03-18T06:00:46.841Z,75.98
2019-03-18T06:01:46.854Z,76.70
2019-03-18T06:02:47.396Z,77.22
2019-03-18T06:03:46.826Z,76.09
2019-03-18T06:04:46.860Z,75.98
2019-03-18T06:05:46.796Z,76.09
2019-03-18T06:06:46.792Z,77.22
2019-03-18T06:07:46.765Z,76.29
2019-03-18T06:08:46.787Z,75.98
2019-03-18T06:09:46.756Z,76.56
2019-03-18T06:10:46.813Z,76.81
2019-03-18T06:11:46.735Z,77.12
2019-03-18T06:12:46.714Z,76.81
2019-03-18T06:13:46.727Z,77.33
2019-03-18T06:14:46.759Z,76.29
2019-03-18T06:15:46.727Z,76.39
2019-03-18T06:16:46.727Z,77.53
2019-03-18T06:17:52.324Z,77.87
2019-03-18T06:18:47.685Z,77.84
2019-03-18T06:19:46.639Z,77.43
2019-03-18T06:20:46.636Z,77.98
2019-03-18T06:21:46.618Z,78.19
2019-03-18T06:22:46.624Z,78.08
2019-03-18T06:23:46.663Z,77.98
2019-03-18T06:24:46.610Z,78.56
2019-03-18T06:25:46.584Z,78.70
2019-03-18T06:26:48.545Z,78.19
2019-03-18T06:27:46.589Z,78.60
2019-03-18T06:28:46.608Z,78.50
2019-03-18T06:29:46.569Z,78.60
2019-03-18T06:30:46.524Z,78.15
2019-03-18T06:31:46.555Z,78.08
2019-03-18T06:32:46.505Z,78.70
2019-03-18T06:33:46.487Z,78.60
2019-03-18T06:34:46.497Z,78.29
2019-03-18T06:35:46.649Z,79.02
2019-03-18T06:36:46.529Z,78.60
2019-03-18T06:37:46.459Z,79.33
2019-03-18T06:38:46.457Z,80.22
2019-03-18T06:39:46.427Z,78.88
2019-03-18T06:40:46.446Z,79.29
2019-03-18T06:41:46.470Z,79.70
2019-03-18T06:42:46.398Z,80.22
2019-03-18T06:43:46.416Z,79.60
2019-03-18T06:44:46.378Z,79.70
2019-03-18T06:45:46.385Z,81.19
2019-03-18T06:46:46.363Z,80.88
2019-03-18T06:47:46.414Z,81.67
2019-03-18T06:48:46.333Z,80.74
2019-03-18T06:49:46.320Z,80.74
2019-03-18T06:50:46.317Z,80.74
2019-03-18T06:51:46.463Z,80.94
2019-03-18T06:52:46.331Z,81.05
2019-03-18T06:53:46.291Z,81.35
2019-03-18T06:54:46.339Z,81.67
2019-03-18T06:55:46.258Z,81.60
2019-03-18T06:56:46.258Z,81.70
2019-03-18T06:57:46.267Z,82.95
2019-03-18T06:58:46.291Z,82.84
2019-03-18T06:59:46.241Z,83.05
2019-03-18T07:00:46.210Z,83.67
2019-03-18T07:01:46.210Z,83.67
2019-03-18T07:02:46.181Z,83.87
2019-03-18T07:03:46.217Z,83.46
2019-03-18T07:04:46.183Z,82.88
2019-03-18T07:05:46.362Z,83.87
2019-03-18T07:06:46.220Z,83.29
2019-03-18T07:07:46.200Z,82.84
2019-03-18T07:08:46.226Z,82.64
2019-03-18T07:09:46.109Z,82.84
2019-03-18T07:10:46.092Z,83.05
2019-03-18T07:11:46.103Z,83.25
2019-03-18T07:12:46.111Z,83.25
2019-03-18T07:13:46.068Z,82.90
2019-03-18T07:14:46.048Z,82.80
2019-03-18T07:15:46.085Z,82.70
2019-03-18T07:16:46.033Z,82.50
2019-03-18T07:17:46.015Z,82.80
2019-03-18T07:18:46.042Z,82.60
2019-03-18T07:19:45.990Z,82.50
2019-03-18T07:20:46.052Z,82.45
2019-03-18T07:21:46.035Z,82.56
2019-03-18T07:22:45.967Z,82.45
2019-03-18T07:23:45.994Z,81.63
2019-03-18T07:24:45.951Z,81.42
2019-03-18T07:25:46.003Z,80.90
2019-03-18T07:26:45.948Z,81.32
2019-03-18T07:27:45.960Z,80.70
2019-03-18T07:28:45.910Z,80.70
2019-03-18T07:29:45.886Z,80.46
2019-03-18T07:30:45.920Z,80.66
2019-03-18T07:31:45.937Z,80.97
2019-03-18T07:32:45.869Z,79.80
2019-03-18T07:33:45.905Z,79.08
2019-03-18T07:34:45.832Z,79.69
2019-03-18T07:35:45.862Z,80.52
2019-03-18T07:36:45.877Z,79.59
2019-03-18T07:37:45.950Z,78.97
2019-03-18T07:38:45.791Z,80.15
2019-03-18T07:39:45.849Z,79.22
2019-03-18T07:40:46.211Z,78.80
2019-03-18T07:41:45.766Z,79.52
2019-03-18T07:42:45.794Z,80.04
2019-03-18T07:43:45.737Z,79.52
2019-03-18T07:44:45.727Z,79.52
2019-03-18T07:45:45.814Z,78.80
2019-03-18T07:46:45.721Z,78.25
2019-03-18T07:47:45.786Z,78.14
2019-03-18T07:48:45.691Z,77.53
2019-03-18T07:49:45.665Z,78.01
2019-03-18T07:50:45.662Z,76.77
2019-03-18T07:51:45.679Z,76.35
2019-03-18T07:52:45.644Z,77.18
2019-03-18T07:53:45.702Z,77.39
2019-03-18T07:54:45.723Z,77.80
2019-03-18T07:55:45.622Z,78.01
2019-03-18T07:56:45.607Z,77.59
2019-03-18T07:57:45.601Z,77.56
2019-03-18T07:58:45.589Z,76.01
2019-03-18T07:59:45.588Z,76.21
2019-03-18T08:00:45.668Z,76.18
2019-03-18T08:01:45.553Z,76.08
2019-03-18T08:02:45.524Z,75.26
2019-03-18T08:03:45.534Z,75.87
2019-03-18T08:04:45.535Z,75.05
2019-03-18T08:05:45.529Z,74.43
2019-03-18T08:06:45.553Z,74.74
2019-03-18T08:07:45.470Z,74.60
2019-03-18T08:08:45.462Z,74.40
2019-03-18T08:09:45.495Z,74.84
2019-03-18T08:10:45.472Z,76.08
2019-03-18T08:11:45.489Z,74.84
2019-03-18T08:12:45.482Z,74.43
2019-03-18T08:13:45.413Z,74.22
2019-03-18T08:14:45.418Z,74.19
2019-03-18T08:15:45.406Z,73.98
2019-03-18T08:16:45.438Z,73.98
2019-03-18T08:17:45.380Z,73.78
2019-03-18T08:18:45.348Z,73.16
2019-03-18T08:19:45.388Z,73.88
2019-03-18T08:20:45.335Z,72.85
2019-03-18T08:21:45.317Z,72.85
2019-03-18T08:22:45.333Z,74.08
2019-03-18T08:23:45.349Z,73.13
2019-03-18T08:24:45.321Z,72.92
2019-03-18T08:25:45.270Z,72.71
2019-03-18T08:26:45.307Z,72.51
2019-03-18T08:27:45.251Z,73.16
2019-03-18T08:28:45.276Z,72.85
2019-03-18T08:29:45.269Z,72.44
2019-03-18T08:30:45.236Z,72.41
2019-03-18T08:31:45.213Z,72.27
2019-03-18T08:32:45.187Z,72.44
2019-03-18T08:33:45.189Z,73.16
2019-03-18T08:34:45.293Z,73.02
2019-03-18T08:35:45.153Z,72.85
2019-03-18T08:36:45.187Z,72.96
2019-03-18T08:37:45.169Z,73.98
2019-03-18T08:38:45.156Z,73.98
2019-03-18T08:39:45.180Z,72.64
2019-03-18T08:40:45.127Z,73.36
2019-03-18T08:41:45.112Z,73.88
2019-03-18T08:42:45.157Z,73.98
2019-03-18T08:43:45.075Z,73.68
2019-03-18T08:44:45.054Z,74.29
2019-03-18T08:45:45.047Z,73.74
2019-03-18T08:46:45.049Z,72.51
2019-03-18T08:47:45.076Z,72.47
2019-03-18T08:48:55.346Z,71.92
2019-03-18T08:49:46.052Z,70.79
2019-03-18T08:50:45.017Z,69.76
2019-03-18T08:51:45.041Z,69.76
2019-03-18T08:52:44.991Z,70.10
2019-03-18T08:53:44.980Z,70.59
2019-03-18T08:54:44.960Z,70.69
2019-03-18T08:55:45.058Z,70.38
2019-03-18T08:56:44.931Z,69.97
2019-03-18T08:57:44.997Z,69.25
2019-03-18T08:58:44.901Z,71.82
2019-03-18T08:59:44.895Z,69.66
2019-03-18T09:00:44.878Z,70.07
2019-03-18T09:01:44.867Z,70.69
2019-03-18T09:02:44.924Z,69.87
2019-03-18T09:03:44.879Z,69.35
2019-03-18T09:04:44.889Z,70.28
2019-03-18T09:05:44.817Z,69.35
2019-03-18T09:06:44.814Z,68.84
2019-03-18T09:07:44.912Z,69.76
2019-03-18T09:08:44.866Z,69.35
2019-03-18T09:09:44.779Z,69.76
2019-03-18T09:10:44.808Z,70.18
2019-03-18T09:11:44.775Z,69.42
2019-03-18T09:12:44.780Z,68.40
2019-03-18T09:13:44.744Z,69.25
2019-03-18T09:14:44.717Z,68.50
2019-03-18T09:15:44.787Z,69.22
2019-03-18T09:16:44.725Z,69.63
2019-03-18T09:17:44.729Z,69.60
2019-03-18T09:18:44.684Z,68.16
2019-03-18T09:19:44.665Z,68.37
2019-03-18T09:20:44.655Z,68.67
2019-03-18T09:21:44.653Z,67.54
2019-03-18T09:22:44.663Z,66.00
2019-03-18T09:23:44.667Z,66.72
2019-03-18T09:24:44.610Z,65.80
2019-03-18T09:25:44.758Z,66.38
2019-03-18T09:26:44.585Z,65.08
2019-03-18T09:27:44.587Z,65.48
2019-03-18T09:28:44.567Z,64.84
2019-03-18T09:29:44.553Z,65.22
2019-03-18T09:30:44.594Z,63.98
2019-03-18T09:31:44.571Z,64.76
2019-03-18T09:32:44.571Z,64.43
2019-03-18T09:33:44.518Z,64.43
2019-03-18T09:34:44.554Z,65.45
2019-03-18T09:35:44.497Z,63.74
2019-03-18T09:36:44.482Z,63.91
2019-03-18T09:37:44.468Z,63.50
2019-03-18T09:38:44.537Z,63.29
2019-03-18T09:39:44.441Z,63.06
2019-03-18T09:40:44.443Z,61.49
2019-03-18T09:41:44.433Z,61.72
2019-03-18T09:42:44.416Z,61.21
2019-03-18T09:43:44.405Z,62.99
2019-03-18T09:44:44.429Z,63.71
2019-03-18T09:45:44.423Z,63.94
2019-03-18T09:46:44.415Z,63.71
2019-03-18T09:47:44.345Z,64.15
2019-03-18T09:48:44.347Z,66.27
2019-03-18T09:49:44.346Z,71.17
2019-03-18T09:50:44.321Z,73.91
2019-03-18T09:51:44.309Z,74.36
2019-03-18T09:52:44.347Z,75.98
2019-03-18T09:53:44.278Z,78.35
2019-03-18T09:54:44.276Z,81.18
2019-03-18T09:55:44.266Z,82.76
2019-03-18T09:56:44.265Z,82.87
2019-03-18T09:57:44.283Z,82.90
2019-03-18T09:58:44.614Z,85.39
2019-03-18T09:59:44.243Z,84.66
2019-03-18T10:00:44.205Z,85.39
2019-03-18T10:01:44.580Z,84.45
2019-03-18T10:02:44.233Z,84.56
2019-03-18T10:03:44.246Z,85.80
2019-03-18T10:04:44.214Z,85.16
2019-03-18T10:05:44.974Z,85.53
2019-03-18T10:06:45.070Z,87.43
2019-03-18T10:07:44.332Z,85.99
2019-03-18T10:08:44.162Z,86.23
2019-03-18T10:09:44.105Z,86.65
2019-03-18T10:10:44.106Z,88.09
2019-03-18T10:11:44.087Z,87.41
2019-03-18T10:12:44.417Z,87.06
2019-03-18T10:13:44.076Z,88.09
2019-03-18T10:14:44.060Z,87.27
2019-03-18T10:15:44.052Z,88.92
2019-03-18T10:16:44.086Z,89.03
2019-03-18T10:17:44.092Z,88.61
2019-03-18T10:18:44.016Z,89.54
2019-03-18T10:19:44.051Z,88.40
2019-03-18T10:20:43.991Z,88.57
2019-03-18T10:21:43.988Z,89.40
2019-03-18T10:22:43.981Z,89.15
2019-03-18T10:23:44.008Z,88.12
2019-03-18T10:24:43.969Z,88.70
2019-03-18T10:25:43.936Z,88.59
2019-03-18T10:26:43.923Z,87.41
2019-03-18T10:27:43.970Z,86.65
2019-03-18T10:28:43.904Z,86.13
2019-03-18T10:29:44.034Z,84.59
2019-03-18T10:30:43.932Z,84.21
2019-03-18T10:31:43.989Z,83.94
2019-03-18T10:32:43.934Z,84.45
2019-03-18T10:33:45.056Z,82.50
2019-03-18T10:34:44.117Z,83.46
2019-03-18T10:35:43.861Z,83.67
2019-03-18T10:36:43.871Z,85.11
2019-03-18T10:37:43.822Z,84.81
2019-03-18T10:38:43.901Z,85.26
2019-03-18T10:39:43.830Z,86.36
2019-03-18T10:40:43.946Z,85.08
2019-03-18T10:41:43.831Z,84.87
2019-03-18T10:42:43.777Z,84.63
2019-03-18T10:43:43.754Z,83.59
2019-03-18T10:44:43.893Z,83.76
2019-03-18T10:45:43.722Z,83.55
2019-03-18T10:46:43.736Z,86.13
2019-03-18T10:47:43.775Z,87.19
2019-03-18T10:48:43.760Z,84.30
2019-03-18T10:49:46.510Z,82.69
2019-03-18T10:50:43.682Z,82.89
2019-03-18T10:51:43.760Z,82.45
2019-03-18T10:52:43.668Z,83.17
2019-03-18T10:53:44.666Z,82.45
2019-03-18T10:54:43.661Z,82.55
2019-03-18T10:55:43.621Z,81.45
2019-03-18T10:56:43.598Z,83.06
2019-03-18T10:57:43.628Z,83.44
2019-03-18T10:58:43.581Z,80.83
2019-03-18T10:59:43.611Z,81.21
2019-03-18T11:00:43.560Z,81.45
2019-03-18T11:01:43.590Z,81.45
2019-03-18T11:02:44.960Z,79.73
2019-03-18T11:03:43.535Z,82.42
2019-03-18T11:04:43.547Z,83.10
2019-03-18T11:05:43.564Z,83.04
2019-03-18T11:06:43.484Z,82.48
2019-03-18T11:07:43.616Z,81.66
2019-03-18T11:08:43.505Z,82.38
2019-03-18T11:09:43.467Z,81.21
2019-03-18T11:10:43.499Z,79.59
2019-03-18T11:11:43.508Z,82.55
2019-03-18T11:12:43.487Z,83.48
2019-03-18T11:13:43.407Z,80.79
2019-03-18T11:14:43.419Z,79.66
2019-03-18T11:15:43.425Z,78.31
2019-03-18T11:16:43.427Z,81.82
2019-03-18T11:17:43.363Z,81.00
2019-03-18T11:18:43.359Z,82.34
2019-03-18T11:19:43.347Z,79.66
2019-03-18T11:20:43.373Z,81.35
2019-03-18T11:21:43.348Z,79.38
2019-03-18T11:22:43.323Z,79.94
2019-03-18T11:23:43.344Z,80.83
2019-03-18T11:24:43.290Z,81.24
2019-03-18T11:25:43.314Z,79.83
2019-03-18T11:26:43.280Z,79.49
2019-03-18T11:27:43.268Z,79.08
2019-03-18T11:28:43.270Z,82.45
2019-03-18T11:29:43.303Z,78.94
2019-03-18T11:30:43.243Z,77.04
2019-03-18T11:31:43.211Z,76.94
2019-03-18T11:32:43.212Z,79.17
2019-03-18T11:33:43.204Z,77.94
2019-03-18T11:34:43.264Z,77.01
2019-03-18T11:35:43.163Z,76.73
2019-03-18T11:36:43.155Z,76.21
2019-03-18T11:37:43.144Z,78.18
2019-03-18T11:38:43.148Z,77.35
2019-03-18T11:39:43.135Z,76.21
2019-03-18T11:40:43.162Z,77.01
2019-03-18T11:41:43.108Z,75.87
2019-03-18T11:42:43.089Z,76.76
2019-03-18T11:43:43.082Z,78.38
2019-03-18T11:44:43.072Z,78.14
2019-03-18T11:45:43.112Z,75.56
2019-03-18T11:46:43.154Z,78.41
2019-03-18T11:47:43.032Z,75.80
2019-03-18T11:48:43.075Z,73.85
2019-03-18T11:49:43.023Z,76.38
2019-03-18T11:50:43.048Z,77.89
2019-03-18T11:51:42.988Z,72.38
2019-03-18T11:52:43.014Z,72.44
2019-03-18T11:53:42.977Z,73.68
2019-03-18T11:54:42.961Z,70.28
2019-03-18T11:55:42.949Z,72.47
2019-03-18T11:56:42.939Z,68.64
2019-03-18T11:57:42.989Z,68.37
2019-03-18T11:58:42.982Z,71.41
2019-03-18T11:59:42.903Z,70.18
2019-03-18T12:00:42.916Z,71.38
2019-03-18T12:01:42.960Z,69.09
2019-03-18T12:02:42.906Z,69.67
2019-03-18T12:03:42.898Z,67.21
2019-03-18T12:04:42.857Z,70.70
2019-03-18T12:05:42.837Z,71.25
2019-03-18T12:06:42.828Z,68.59
2019-03-18T12:07:42.809Z,63.90
2019-03-18T12:08:42.886Z,65.74
2019-03-18T12:09:42.805Z,65.95
2019-03-18T12:10:42.779Z,64.61
2019-03-18T12:11:42.785Z,65.77
2019-03-18T12:12:42.751Z,66.05
2019-03-18T12:13:42.801Z,63.49
2019-03-18T12:14:42.786Z,63.42
2019-03-18T12:15:42.715Z,62.77
2019-03-18T12:16:42.722Z,65.54
2019-03-18T12:17:42.749Z,62.18
2019-03-18T12:18:42.683Z,61.87
2019-03-18T12:19:42.676Z,61.05
2019-03-18T12:20:42.689Z,63.00
2019-03-18T12:21:42.701Z,59.72
2019-03-18T12:22:42.647Z,63.21
2019-03-18T12:23:42.851Z,62.39
2019-03-18T12:24:42.645Z,61.98
2019-03-18T12:25:42.679Z,63.10
2019-03-18T12:26:42.624Z,63.24
2019-03-18T12:27:42.592Z,61.87
2019-03-18T12:28:42.583Z,63.65
2019-03-18T12:29:42.564Z,61.80
2019-03-18T12:30:42.587Z,63.47
2019-03-18T12:31:42.612Z,65.53
2019-03-18T12:32:42.533Z,63.47
2019-03-18T12:33:42.572Z,65.14
2019-03-18T12:34:42.541Z,65.89
2019-03-18T12:35:42.511Z,67.88
2019-03-18T12:36:42.573Z,68.29
2019-03-18T12:37:42.468Z,68.80
2019-03-18T12:38:42.468Z,70.79
2019-03-18T12:39:42.517Z,69.35
2019-03-18T12:40:42.787Z,68.63
2019-03-18T12:41:42.520Z,69.04
2019-03-18T12:42:42.679Z,71.48
2019-03-18T12:43:42.457Z,68.37
2019-03-18T12:44:42.415Z,67.44
2019-03-18T12:45:42.408Z,68.16
2019-03-18T12:46:42.380Z,66.79
2019-03-18T12:47:42.404Z,68.51
2019-03-18T12:48:42.421Z,65.70
2019-03-18T12:49:42.427Z,66.31
2019-03-18T12:50:55.205Z,66.60
2019-03-18T12:51:43.316Z,64.59
2019-03-18T12:52:42.315Z,62.43